createdAt,value
2019-01-15T00:01:31.007Z,3.40
2019-01-15T00:04:00.060Z,3.23
2019-01-15T00:06:28.944Z,3.13
2019-01-15T00:08:57.964Z,3.10
2019-01-15T00:11:26.981Z,3.50
2019-01-15T00:13:55.982Z,3.23
2019-01-15T00:16:24.836Z,2.97
2019-01-15T00:18:53.871Z,3.77
2019-01-15T00:21:22.866Z,2.83
2019-01-15T00:23:52.088Z,3.20
2019-01-15T00:26:21.007Z,3.50
2019-01-15T00:28:49.950Z,3.17
2019-01-15T00:31:19.066Z,3.67
2019-01-15T00:33:48.024Z,2.40
2019-01-15T00:36:16.866Z,3.17
2019-01-15T00:38:45.790Z,3.30
2019-01-15T00:41:14.728Z,2.90
2019-01-15T00:43:45.695Z,3.33
2019-01-15T00:46:14.569Z,3.00
2019-01-15T00:48:43.593Z,3.10
2019-01-15T00:51:13.029Z,3.23
2019-01-15T00:53:41.987Z,3.47
2019-01-15T00:56:10.967Z,3.57
2019-01-15T00:58:40.118Z,3.67
2019-01-15T01:01:09.120Z,3.50
2019-01-15T01:03:38.066Z,2.97
2019-01-15T01:06:08.599Z,3.57
2019-01-15T01:08:37.587Z,3.37
2019-01-15T01:11:07.465Z,2.77
2019-01-15T01:13:36.386Z,3.50
2019-01-15T01:16:06.211Z,3.57
2019-01-15T01:18:35.256Z,3.30
2019-01-15T01:21:04.422Z,3.23
2019-01-15T01:23:34.125Z,3.33
2019-01-15T01:26:03.108Z,2.97
2019-01-15T01:28:31.985Z,3.33
2019-01-15T01:31:00.930Z,3.17
2019-01-15T01:33:29.980Z,3.03
2019-01-15T01:35:59.011Z,3.10
2019-01-15T01:38:28.523Z,3.73
2019-01-15T01:40:57.384Z,4.27
2019-01-15T01:43:26.315Z,3.73
2019-01-15T01:45:55.943Z,3.30
2019-01-15T01:48:24.961Z,2.87
2019-01-15T01:50:54.000Z,4.10
2019-01-15T01:53:23.059Z,3.57
2019-01-15T01:55:52.128Z,3.10
2019-01-15T01:58:21.120Z,2.83
2019-01-15T02:00:51.090Z,2.93
2019-01-15T02:03:20.085Z,3.17
2019-01-15T02:05:48.988Z,3.73
2019-01-15T02:08:17.961Z,3.10
2019-01-15T02:10:46.797Z,4.30
2019-01-15T02:13:15.750Z,3.10
2019-01-15T02:15:44.786Z,3.40
2019-01-15T02:18:13.514Z,2.80
2019-01-15T02:20:42.355Z,2.70
2019-01-15T02:23:11.371Z,3.40
2019-01-15T02:25:40.208Z,3.03
2019-01-15T02:28:09.245Z,2.63
2019-01-15T02:30:38.140Z,3.10
2019-01-15T02:33:07.381Z,2.63
2019-01-15T02:35:36.308Z,2.60
2019-01-15T02:38:05.330Z,3.03
2019-01-15T02:40:34.373Z,2.70
2019-01-15T02:43:04.360Z,2.90
2019-01-15T02:45:33.326Z,3.13
2019-01-15T02:48:02.222Z,3.23
2019-01-15T02:50:31.189Z,3.03
2019-01-15T02:53:01.420Z,2.97
2019-01-15T02:55:32.660Z,3.97
2019-01-15T03:00:46.073Z,3.20
2019-01-15T03:03:16.281Z,3.60
2019-01-15T03:05:46.495Z,2.90
2019-01-15T03:08:17.956Z,3.53
2019-01-15T03:10:47.763Z,3.27
2019-01-15T03:13:17.659Z,3.23
2019-01-15T03:15:48.204Z,3.93
2019-01-15T03:18:18.624Z,4.20
2019-01-15T03:20:49.273Z,3.00
2019-01-15T03:23:19.274Z,3.80
2019-01-15T03:25:51.446Z,3.00
2019-01-15T03:28:21.656Z,2.87
2019-01-15T03:30:51.469Z,3.30
2019-01-15T03:33:22.015Z,3.60
2019-01-15T03:35:52.745Z,3.63
2019-01-15T03:38:23.049Z,4.60
2019-01-15T03:40:53.901Z,4.40
2019-01-15T03:43:24.318Z,5.43
2019-01-15T03:45:54.939Z,4.47
2019-01-15T03:48:25.392Z,4.37
2019-01-15T03:50:56.734Z,4.20
2019-01-15T03:53:30.010Z,3.30
2019-01-15T03:56:00.024Z,3.03
2019-01-15T03:58:30.453Z,3.63
2019-01-15T04:01:00.572Z,5.10
2019-01-15T04:03:30.915Z,5.77
2019-01-15T04:06:01.315Z,8.00
2019-01-15T04:08:31.864Z,10.37
2019-01-15T04:11:01.883Z,6.97
2019-01-15T04:13:32.008Z,4.17
2019-01-15T04:16:02.324Z,3.50
2019-01-15T04:18:32.231Z,3.60
2019-01-15T04:21:02.546Z,3.80
2019-01-15T04:23:32.664Z,6.00
2019-01-15T04:26:02.734Z,7.03
2019-01-15T04:28:32.912Z,6.57
2019-01-15T04:31:03.229Z,6.47
2019-01-15T04:33:35.490Z,5.13
2019-01-15T04:36:05.436Z,3.73
2019-01-15T04:38:35.319Z,3.63
2019-01-15T04:41:05.129Z,3.37
2019-01-15T04:43:35.478Z,3.00
2019-01-15T04:46:05.899Z,3.17
2019-01-15T04:48:36.207Z,3.13
2019-01-15T04:51:07.365Z,3.70
2019-01-15T04:53:37.794Z,2.93
2019-01-15T04:56:08.299Z,2.60
2019-01-15T04:58:38.215Z,2.97
2019-01-15T05:01:08.439Z,3.97
2019-01-15T05:03:38.883Z,3.37
2019-01-15T05:06:08.992Z,3.30
2019-01-15T05:08:39.227Z,3.60
2019-01-15T05:11:09.336Z,3.20
2019-01-15T05:13:39.338Z,3.33
2019-01-15T05:16:09.365Z,3.97
2019-01-15T05:18:39.291Z,4.00
2019-01-15T05:21:09.088Z,3.83
2019-01-15T05:23:39.325Z,3.67
2019-01-15T05:26:09.015Z,4.10
2019-01-15T05:28:39.030Z,3.20
2019-01-15T05:31:09.072Z,4.23
2019-01-15T05:33:39.275Z,5.60
2019-01-15T05:36:09.402Z,4.73
2019-01-15T05:38:39.533Z,11.47
2019-01-15T05:41:09.863Z,5.80
2019-01-15T05:43:39.638Z,5.10
2019-01-15T05:46:09.857Z,3.80
2019-01-15T05:48:40.083Z,5.57
2019-01-15T05:51:28.737Z,5.63
2019-01-15T05:53:58.875Z,4.50
2019-01-15T05:56:29.176Z,6.67
2019-01-15T05:58:59.925Z,6.83
2019-01-15T06:01:30.233Z,6.90
2019-01-15T06:04:00.777Z,4.80
2019-01-15T06:06:30.904Z,7.70
2019-01-15T06:09:00.792Z,6.53
2019-01-15T06:11:30.624Z,6.20
2019-01-15T06:14:00.837Z,7.37
2019-01-15T06:16:30.844Z,6.17
2019-01-15T06:19:00.659Z,6.97
2019-01-15T06:21:30.795Z,7.63
2019-01-15T06:24:00.815Z,5.67
2019-01-15T06:26:31.531Z,6.20
2019-01-15T06:29:02.569Z,7.07
2019-01-15T06:31:32.889Z,7.80
2019-01-15T06:34:03.112Z,6.70
2019-01-15T06:36:33.331Z,7.10
2019-01-15T06:39:03.465Z,5.73
2019-01-15T06:41:33.467Z,5.80
2019-01-15T06:44:03.705Z,5.53
2019-01-15T06:46:33.825Z,5.60
2019-01-15T06:49:04.355Z,6.33
2019-01-15T06:51:34.904Z,6.97
2019-01-15T06:54:05.509Z,5.40
2019-01-15T06:56:35.647Z,7.93
2019-01-15T06:59:05.742Z,15.33
2019-01-15T07:01:36.288Z,10.73
2019-01-15T07:04:06.387Z,9.90
2019-01-15T07:06:36.507Z,8.27
2019-01-15T07:09:09.607Z,5.87
2019-01-15T07:11:39.629Z,7.13
2019-01-15T07:14:09.848Z,6.10
2019-01-15T07:16:40.092Z,6.70
2019-01-15T07:19:10.388Z,7.23
2019-01-15T07:21:40.939Z,5.60
2019-01-15T07:24:11.073Z,6.07
2019-01-15T07:26:41.688Z,5.70
2019-01-15T07:29:11.882Z,7.17
2019-01-15T07:31:41.792Z,8.23
2019-01-15T07:34:12.444Z,9.17
2019-01-15T07:36:42.234Z,6.97
2019-01-15T07:39:12.691Z,6.93
2019-01-15T07:41:42.812Z,8.87
2019-01-15T07:44:13.643Z,6.70
2019-01-15T07:46:43.933Z,6.83
2019-01-15T07:49:14.088Z,7.03
2019-01-15T07:51:44.784Z,7.33
2019-01-15T07:54:15.414Z,8.70
2019-01-15T07:56:45.844Z,9.70
2019-01-15T07:59:15.864Z,8.73
2019-01-15T08:01:46.392Z,8.10
2019-01-15T08:04:17.124Z,8.77
2019-01-15T08:06:47.764Z,9.03
2019-01-15T08:09:18.513Z,6.77
2019-01-15T08:11:48.514Z,8.00
2019-01-15T08:14:21.594Z,9.13
2019-01-15T08:16:51.725Z,6.90
2019-01-15T08:19:21.844Z,11.53
2019-01-15T08:21:52.062Z,8.43
2019-01-15T08:24:22.084Z,7.57
2019-01-15T08:26:52.810Z,7.97
2019-01-15T08:29:23.532Z,8.13
2019-01-15T08:31:53.754Z,8.43
2019-01-15T08:34:24.203Z,8.13
2019-01-15T08:36:54.323Z,7.00
2019-01-15T08:39:24.634Z,8.50
2019-01-15T08:41:56.031Z,5.87
2019-01-15T08:44:26.387Z,6.10
2019-01-15T08:46:56.414Z,7.73
2019-01-15T08:49:34.000Z,5.63
2019-01-15T08:52:04.426Z,5.87
2019-01-15T08:54:34.552Z,7.60
2019-01-15T08:57:05.074Z,10.73
2019-01-15T08:59:35.400Z,9.40
2019-01-15T09:02:05.849Z,9.87
2019-01-15T09:04:35.743Z,7.10
2019-01-15T09:07:06.155Z,6.57
2019-01-15T09:09:36.074Z,6.00
2019-01-15T09:12:06.814Z,6.93
2019-01-15T09:14:37.765Z,10.43
2019-01-15T09:17:11.069Z,10.20
2019-01-15T09:19:41.371Z,8.60
2019-01-15T09:22:12.418Z,8.47
2019-01-15T09:24:43.572Z,9.13
2019-01-15T09:27:14.704Z,9.83
2019-01-15T09:29:46.457Z,8.70
2019-01-15T09:32:17.396Z,10.87
2019-01-15T09:34:48.082Z,10.77
2019-01-15T09:37:18.696Z,12.83
2019-01-15T09:39:51.332Z,12.57
2019-01-15T09:42:22.496Z,13.23
2019-01-15T09:44:53.416Z,15.93
2019-01-15T09:47:23.435Z,14.47
2019-01-15T09:49:53.452Z,14.00
2019-01-15T09:52:24.194Z,15.73
2019-01-15T09:54:54.401Z,15.50
2019-01-15T09:57:24.112Z,11.70
2019-01-15T09:59:54.074Z,10.67
2019-01-15T10:02:24.178Z,12.67
2019-01-15T10:04:54.473Z,9.93
2019-01-15T10:07:24.691Z,9.07
2019-01-15T10:09:54.603Z,8.40
2019-01-15T10:12:24.737Z,9.13
2019-01-15T10:14:54.637Z,10.37
2019-01-15T10:17:24.245Z,8.03
2019-01-15T10:19:57.452Z,9.93
2019-01-15T10:22:28.582Z,10.47
2019-01-15T10:24:58.695Z,9.67
2019-01-15T10:27:28.916Z,8.33
2019-01-15T10:30:02.114Z,8.47
2019-01-15T10:32:39.405Z,9.53
2019-01-15T10:35:11.794Z,6.77
2019-01-15T10:37:42.397Z,8.77
2019-01-15T10:40:12.313Z,7.30
2019-01-15T10:42:42.530Z,6.67
2019-01-15T10:45:13.274Z,7.70
2019-01-15T10:47:43.186Z,9.93
2019-01-15T10:50:13.644Z,9.67
2019-01-15T10:52:44.034Z,8.10
2019-01-15T10:55:14.468Z,6.83
2019-01-15T10:57:45.194Z,9.53
2019-01-15T11:00:15.408Z,6.37
2019-01-15T11:02:45.633Z,6.93
2019-01-15T11:05:15.658Z,7.57
2019-01-15T11:07:45.663Z,7.57
2019-01-15T11:10:15.997Z,6.50
2019-01-15T11:12:45.798Z,6.87
2019-01-15T11:15:15.721Z,7.10
2019-01-15T11:17:45.539Z,9.33
2019-01-15T11:20:15.953Z,8.37
2019-01-15T11:22:46.285Z,8.93
2019-01-15T11:25:15.987Z,10.57
2019-01-15T11:27:45.927Z,8.50
2019-01-15T11:30:16.566Z,8.40
2019-01-15T11:32:46.854Z,8.30
2019-01-15T11:35:17.084Z,7.20
2019-01-15T11:37:47.294Z,7.40
2019-01-15T11:40:17.843Z,7.00
2019-01-15T11:42:47.883Z,9.60
2019-01-15T11:45:18.273Z,7.83
2019-01-15T11:47:49.763Z,6.70
2019-01-15T11:50:20.255Z,6.50
2019-01-15T11:52:51.403Z,6.87
2019-01-15T11:55:21.471Z,6.70
2019-01-15T11:57:51.734Z,7.00
2019-01-15T12:00:36.603Z,6.03
2019-01-15T12:03:13.923Z,5.80
2019-01-15T12:06:02.844Z,6.80
2019-01-15T12:08:42.203Z,6.73
2019-01-15T12:11:31.074Z,7.20
2019-01-15T12:14:20.402Z,6.50
2019-01-15T12:17:12.033Z,7.13
2019-01-15T12:20:00.788Z,6.63
2019-01-15T12:22:49.447Z,6.90
2019-01-15T12:25:37.073Z,6.67
2019-01-15T12:28:26.045Z,6.73
2019-01-15T12:31:15.200Z,6.40
2019-01-15T12:34:04.358Z,5.80
2019-01-15T12:36:53.363Z,5.67
2019-01-15T12:39:42.074Z,7.33
2019-01-15T12:42:30.852Z,8.27
2019-01-15T12:45:20.443Z,7.10
2019-01-15T12:48:09.163Z,6.00
2019-01-15T12:50:58.434Z,7.40
2019-01-15T12:53:47.187Z,6.23
2019-01-15T12:56:30.307Z,7.30
2019-01-15T12:59:07.803Z,6.90
2019-01-15T13:01:56.473Z,7.00
2019-01-15T13:04:36.851Z,5.77
2019-01-15T13:07:19.727Z,7.63
2019-01-15T13:10:08.603Z,6.80
2019-01-15T13:12:57.283Z,7.13
2019-01-15T13:15:46.444Z,7.00
2019-01-15T13:18:37.221Z,6.03
2019-01-15T13:21:26.284Z,6.83
2019-01-15T13:24:04.994Z,5.57
2019-01-15T13:26:48.220Z,5.63
2019-01-15T13:29:28.683Z,7.00
2019-01-15T13:32:17.640Z,5.63
2019-01-15T13:35:07.626Z,7.40
2019-01-15T13:37:56.176Z,8.83
2019-01-15T13:40:44.624Z,8.10
2019-01-15T13:43:33.789Z,7.60
2019-01-15T13:46:19.472Z,8.47
2019-01-15T13:49:08.445Z,7.93
2019-01-15T13:51:57.197Z,9.47
2019-01-15T13:54:45.846Z,7.40
2019-01-15T13:57:34.807Z,8.13
2019-01-15T14:00:25.506Z,8.40
2019-01-15T14:03:04.642Z,9.77
2019-01-15T14:05:53.711Z,10.73
2019-01-15T14:08:33.036Z,11.30
2019-01-15T14:11:21.999Z,12.90
2019-01-15T14:14:11.672Z,13.73
2019-01-15T14:16:55.720Z,12.93
2019-01-15T14:19:44.370Z,17.57
2019-01-15T14:22:33.135Z,10.33
2019-01-15T14:25:22.814Z,9.07
2019-01-15T14:28:11.252Z,13.23
2019-01-15T14:30:59.700Z,11.97
2019-01-15T14:33:48.459Z,11.37
2019-01-15T14:36:35.778Z,14.83
2019-01-15T14:39:21.059Z,13.23
2019-01-15T14:42:10.436Z,11.77
2019-01-15T14:45:16.069Z,12.87
2019-01-15T14:48:04.946Z,15.53
2019-01-15T14:50:53.494Z,15.70
2019-01-15T14:53:33.855Z,16.33
2019-01-15T14:56:13.899Z,20.37
2019-01-15T14:59:03.471Z,18.37
2019-01-15T15:01:52.437Z,16.17
2019-01-15T15:04:33.086Z,15.63
2019-01-15T15:07:13.974Z,15.40
2019-01-15T15:10:04.363Z,14.27
2019-01-15T15:12:46.988Z,16.83
2019-01-15T15:15:37.074Z,14.10
2019-01-15T15:18:19.976Z,14.73
2019-01-15T15:21:09.664Z,13.53
2019-01-15T15:24:00.082Z,15.43
2019-01-15T15:26:41.846Z,18.10
2019-01-15T15:29:30.595Z,16.60
2019-01-15T15:32:19.365Z,15.67
2019-01-15T15:35:08.419Z,15.77
2019-01-15T15:37:57.383Z,13.83
2019-01-15T15:40:46.350Z,12.20
2019-01-15T15:43:35.076Z,13.40
2019-01-15T15:46:23.755Z,16.67
2019-01-15T15:49:07.694Z,21.27
2019-01-15T15:51:53.066Z,17.60
2019-01-15T15:54:41.516Z,14.97
2019-01-15T15:57:30.279Z,11.70
2019-01-15T16:00:13.393Z,12.27
2019-01-15T16:03:02.560Z,13.10
2019-01-15T16:05:51.427Z,14.20
2019-01-15T16:08:40.488Z,14.17
2019-01-15T16:11:30.463Z,16.23
2019-01-15T16:14:20.345Z,14.27
2019-01-15T16:17:11.350Z,14.53
2019-01-15T16:20:10.777Z,15.77
2019-01-15T16:22:59.417Z,14.27
2019-01-15T16:25:44.185Z,15.97
2019-01-15T16:28:32.943Z,15.03
2019-01-15T16:31:22.413Z,15.03
2019-01-15T16:34:12.500Z,13.53
2019-01-15T16:37:04.216Z,12.77
2019-01-15T16:39:52.774Z,12.73
2019-01-15T16:42:37.437Z,13.47
2019-01-15T16:45:28.129Z,12.50
2019-01-15T16:48:17.084Z,12.97
2019-01-15T16:51:05.961Z,13.50
2019-01-15T16:53:56.353Z,13.70
2019-01-15T16:56:45.306Z,12.53
2019-01-15T16:59:35.298Z,11.73
2019-01-15T17:02:24.354Z,13.07
2019-01-15T17:05:04.825Z,13.70
2019-01-15T17:07:50.910Z,13.17
2019-01-15T17:10:33.086Z,14.33
2019-01-15T17:13:26.785Z,12.97
2019-01-15T17:16:19.328Z,15.67
2019-01-15T17:19:08.295Z,15.63
2019-01-15T17:22:01.448Z,17.57
2019-01-15T17:24:52.564Z,17.30
2019-01-15T17:27:41.417Z,17.50
2019-01-15T17:30:36.424Z,17.00
2019-01-15T17:33:34.899Z,15.93
2019-01-15T17:36:17.201Z,17.67
2019-01-15T17:39:06.684Z,16.50
2019-01-15T17:42:00.958Z,16.03
2019-01-15T17:44:51.464Z,16.13
2019-01-15T17:47:35.209Z,16.50
2019-01-15T17:50:26.403Z,14.27
2019-01-15T17:53:14.764Z,17.33
2019-01-15T17:56:02.398Z,17.07
2019-01-15T17:58:55.644Z,16.97
2019-01-15T18:01:47.306Z,17.53
2019-01-15T18:04:34.998Z,16.63
2019-01-15T18:07:20.074Z,16.13
2019-01-15T18:10:03.911Z,15.93
2019-01-15T18:12:52.563Z,13.60
2019-01-15T18:15:33.737Z,14.40
2019-01-15T18:18:22.505Z,15.43
2019-01-15T18:21:12.586Z,15.00
2019-01-15T18:24:04.624Z,13.90
2019-01-15T18:26:55.927Z,15.03
2019-01-15T18:29:47.073Z,11.23
2019-01-15T18:35:53.797Z,9.10
2019-01-15T18:38:34.715Z,13.00
2019-01-15T18:41:28.278Z,10.40
2019-01-15T18:44:20.728Z,10.57
2019-01-15T18:47:09.989Z,12.83
2019-01-15T18:50:02.847Z,11.87
2019-01-15T18:52:53.851Z,13.13
2019-01-15T18:55:48.774Z,10.67
2019-01-15T18:58:52.366Z,11.37
2019-01-15T19:01:41.416Z,10.60
2019-01-15T19:04:38.464Z,11.00
2019-01-15T19:07:25.789Z,13.50
2019-01-15T19:10:15.976Z,10.50
2019-01-15T19:13:07.191Z,10.67
2019-01-15T19:15:58.196Z,10.43
2019-01-15T19:18:50.024Z,11.70
2019-01-15T19:21:39.308Z,11.97
2019-01-15T19:24:28.766Z,13.93
2019-01-15T19:27:24.282Z,11.33
2019-01-15T19:30:14.477Z,12.20
2019-01-15T19:33:04.351Z,12.27
2019-01-15T19:35:58.847Z,12.67
2019-01-15T19:38:52.719Z,12.43
2019-01-15T19:41:47.937Z,11.17
2019-01-15T19:44:40.194Z,11.20
2019-01-15T19:47:28.718Z,11.93
2019-01-15T19:50:22.494Z,12.27
2019-01-15T19:53:18.096Z,11.90
2019-01-15T19:56:01.337Z,12.83
2019-01-15T19:58:51.727Z,12.47
2019-01-15T20:01:46.520Z,10.97
2019-01-15T20:04:35.898Z,14.00
2019-01-15T20:07:27.314Z,15.20
2019-01-15T20:10:16.074Z,17.53
2019-01-15T20:13:04.927Z,13.70
2019-01-15T20:15:56.073Z,14.57
2019-01-15T20:18:51.757Z,17.00
2019-01-15T20:21:50.240Z,16.00
2019-01-15T20:24:37.070Z,15.93
2019-01-15T20:27:26.014Z,17.97
2019-01-15T20:30:17.318Z,17.13
2019-01-15T20:32:56.662Z,16.30
2019-01-15T20:35:48.494Z,17.87
2019-01-15T20:38:27.928Z,16.87
2019-01-15T20:41:19.647Z,16.53
2019-01-15T20:44:13.236Z,17.33
2019-01-15T20:47:03.413Z,16.40
2019-01-15T20:49:47.964Z,18.33
2019-01-15T20:52:37.021Z,20.27
2019-01-15T20:55:27.625Z,18.03
2019-01-15T20:58:24.064Z,16.90
2019-01-15T21:01:15.886Z,16.93
2019-01-15T21:04:11.615Z,18.30
2019-01-15T21:07:00.267Z,18.93
2019-01-15T21:09:42.872Z,18.07
2019-01-15T21:12:32.036Z,18.20
2019-01-15T21:15:20.487Z,17.47
2019-01-15T21:18:09.454Z,17.37
2019-01-15T21:20:58.292Z,15.17
2019-01-15T21:23:46.955Z,16.83
2019-01-15T21:26:44.320Z,16.97
2019-01-15T21:29:28.868Z,16.70
2019-01-15T21:32:18.073Z,14.13
2019-01-15T21:35:14.469Z,17.13
2019-01-15T21:38:04.427Z,15.83
2019-01-15T21:40:53.317Z,16.40
2019-01-15T21:43:55.277Z,15.57
2019-01-15T21:46:44.848Z,15.10
2019-01-15T21:49:36.681Z,16.30
2019-01-15T21:52:27.084Z,14.83
2019-01-15T21:55:14.186Z,14.60
2019-01-15T21:58:08.478Z,14.23
2019-01-15T22:01:04.200Z,12.70
2019-01-15T22:03:48.349Z,13.37
2019-01-15T22:06:36.796Z,13.80
2019-01-15T22:09:23.911Z,14.47
2019-01-15T22:12:12.769Z,13.90
2019-01-15T22:15:02.248Z,12.27
2019-01-15T22:17:50.805Z,13.53
2019-01-15T22:20:30.073Z,13.47
2019-01-15T22:23:16.839Z,13.20
2019-01-15T22:26:05.390Z,14.23
2019-01-15T22:28:53.434Z,11.87
2019-01-15T22:31:34.605Z,12.97
2019-01-15T22:34:26.435Z,11.33
2019-01-15T22:37:15.496Z,12.23
2019-01-15T22:40:04.351Z,10.57
2019-01-15T22:42:45.426Z,11.70
2019-01-15T22:45:36.125Z,10.67
2019-01-15T22:48:26.428Z,10.30
2019-01-15T22:51:28.604Z,12.03
2019-01-15T22:54:40.398Z,11.33
2019-01-15T22:57:30.474Z,11.47
2019-01-15T23:00:19.543Z,10.27
2019-01-15T23:03:08.708Z,9.43
2019-01-15T23:05:57.666Z,10.07
2019-01-15T23:08:46.213Z,8.40
2019-01-15T23:11:31.078Z,8.90
2019-01-15T23:14:18.005Z,9.83
2019-01-15T23:17:02.139Z,8.97
2019-01-15T23:19:50.753Z,7.73
2019-01-15T23:22:36.069Z,8.60
2019-01-15T23:25:25.345Z,8.30
2019-01-15T23:28:13.885Z,7.47
2019-01-15T23:31:02.333Z,7.70
2019-01-15T23:33:51.078Z,6.67
2019-01-15T23:36:39.642Z,6.43
2019-01-15T23:39:28.393Z,7.33
2019-01-15T23:42:16.864Z,6.77
2019-01-15T23:45:05.605Z,6.20
2019-01-15T23:47:44.118Z,6.30
2019-01-15T23:50:32.668Z,6.00
2019-01-15T23:53:21.419Z,5.43
2019-01-15T23:56:18.594Z,5.60
2019-01-15T23:59:06.613Z,5.67
